Airfield :
LOGIN :

Register | Disclaimer

   EN    FR    IT 

 










Legend :    VFR   Marginal VFR   IFR   Intensive IFR   Very Intensive IFR
Visi :
Ceiling :
>= 8 km
>= 3000ft
5 to 8 km
1000 to 3000 ft
1500m to 5 km
500 to 1000 ft
800 to 1500m
200 to 500 ft
< 800m
< 200 ft
Symbols :   Thunderstorms  Fog  Heavy snow  Heavy precipitations  Wind > 20 kt
SIGMETs :     Misc.  Thunderstorms  Icing  Turbulence  Mountain Waves  Volcanic Ashes







- Airport Elevation : 466 ft


LHPA - Pápa

EXPIRED METARs :
  • 241415Z 22004KT CAVOK 32/14 Q1014 NOSIG RMK BLU
  • 241345Z 19004KT CAVOK 31/14 Q1014 NOSIG RMK BLU
  • 241315Z 30004KT CAVOK 32/14 Q1014 NOSIG RMK BLU
  • 241245Z 24006KT 140V340 CAVOK 31/13 Q1015 NOSIG RMK BLU
  • 241215Z 24006KT 150V350 CAVOK 30/13 Q1015 NOSIG RMK BLU
  • 241145Z 21002KT CAVOK 30/14 Q1015 NOSIG RMK BLU

Expired Forecast.
No reported NOTAMs for that airfield.
1 SIGMET reported for the Budapest FIR (LHCC) :
 
Frequent thunderstorms
LHCC SIGMET 02 VALID 250220/250420 LHBP
LHCC BUDAPEST FIR FRQ TS OBS WI N4725 E01639 - N4730 E01857 - N4643 E01844 - N4633 E01625 - N4725 E01639 TOP FL440 MOV E INTSF=



MET'MAP, your aeronautical weather chart ! - Copyright ORBIFLY December 2007 - Disclaimer

ORBIFLY MET'MAP TEAM :

Programming & Development : Alexandra Zaïnal
Concept & Development : Baudouin d'Aumeries
Co-Development & Prog : Marc-Olivier Méhu
Technical & hardware support : Manuel Goepfert

Contact : metmap@orbifly.com




SOURCES & CREDITS :

   NOAA